Machen, United Kingdom
Current Conditions -  °F | °C
As of 8:50 AM on Friday 24 Oct 2014 (Local Time) from EGFF Reporting Station
Light Rain Light Rain  
Wind Chill: 14°   Ceiling: 800
Heat Index: 14°   Visibility: 4mi
Dew Point: 14°   Wind: 7mph
Humidity: 100%   Direction: 200°SSW
Pressure: 29.94"   Gusts: NA
Location:  51.6°N, 3.14°W
Report Text: EGFF 240750Z AUTO 20006KT 6000 -RA OVC008 14/14 Q1014
Loading
Personal Weather Stations






























Interactive Weather Map
Tropical Storm Tracking
New forecast layout! Learn more

10-Day Weather Forecast

Advertisements
Track Severe Weather on mobile